createdAt,value
2019-01-25T00:01:13.165Z,15.37
2019-01-25T00:04:07.924Z,15.33
2019-01-25T00:07:01.597Z,17.57
2019-01-25T00:09:58.733Z,18.17
2019-01-25T00:12:52.265Z,16.43
2019-01-25T00:15:46.504Z,16.03
2019-01-25T00:18:41.068Z,17.03
2019-01-25T00:21:35.548Z,15.37
2019-01-25T00:24:29.986Z,15.60
2019-01-25T00:27:24.536Z,15.07
2019-01-25T00:30:19.719Z,15.60
2019-01-25T00:33:14.072Z,14.70
2019-01-25T00:36:08.638Z,14.63
2019-01-25T00:39:03.302Z,14.43
2019-01-25T00:41:57.738Z,14.47
2019-01-25T00:44:52.060Z,16.13
2019-01-25T00:47:46.679Z,16.07
2019-01-25T00:50:41.022Z,15.43
2019-01-25T00:53:35.265Z,13.93
2019-01-25T00:56:29.664Z,15.10
2019-01-25T00:59:24.081Z,15.47
2019-01-25T01:02:18.387Z,15.27
2019-01-25T01:05:12.867Z,15.13
2019-01-25T01:08:07.625Z,15.53
2019-01-25T01:11:02.225Z,15.10
2019-01-25T01:13:56.565Z,15.13
2019-01-25T01:16:48.850Z,14.97
2019-01-25T01:19:43.510Z,14.83
2019-01-25T01:22:39.108Z,14.47
2019-01-25T01:25:33.565Z,15.83
2019-01-25T01:28:31.523Z,15.53
2019-01-25T01:31:26.123Z,15.63
2019-01-25T01:34:23.461Z,15.67
2019-01-25T01:37:18.014Z,16.83
2019-01-25T01:40:22.128Z,17.70
2019-01-25T01:43:15.191Z,19.00
2019-01-25T01:46:09.504Z,19.63
2019-01-25T01:49:03.014Z,21.40
2019-01-25T01:51:57.258Z,19.17
2019-01-25T01:54:51.254Z,19.87
2019-01-25T01:57:45.786Z,18.17
2019-01-25T02:00:40.180Z,18.83
2019-01-25T02:03:34.543Z,17.33
2019-01-25T02:06:28.738Z,17.03
2019-01-25T02:09:23.096Z,18.93
2019-01-25T02:12:18.755Z,17.60
2019-01-25T02:15:15.198Z,18.10
2019-01-25T02:18:09.690Z,17.73
2019-01-25T02:21:04.634Z,18.00
2019-01-25T02:23:59.022Z,17.67
2019-01-25T02:26:53.407Z,16.93
2019-01-25T02:29:47.695Z,17.80
2019-01-25T02:32:41.875Z,18.20
2019-01-25T02:35:36.099Z,20.37
2019-01-25T02:38:30.645Z,20.23
2019-01-25T02:41:25.342Z,20.47
2019-01-25T02:44:19.781Z,20.30
2019-01-25T02:47:14.064Z,20.53
2019-01-25T02:50:09.349Z,17.67
2019-01-25T02:53:06.748Z,18.37
2019-01-25T02:56:05.518Z,19.20
2019-01-25T02:58:59.947Z,19.10
2019-01-25T03:01:54.197Z,20.63
2019-01-25T03:04:49.681Z,20.33
2019-01-25T03:07:44.203Z,20.93
2019-01-25T03:10:46.848Z,19.90
2019-01-25T03:13:34.538Z,19.07
2019-01-25T03:16:29.108Z,19.67
2019-01-25T03:19:23.670Z,19.47
2019-01-25T03:22:18.116Z,18.70
2019-01-25T03:25:14.766Z,19.50
2019-01-25T03:28:09.741Z,18.53
2019-01-25T03:31:04.403Z,18.77
2019-01-25T03:33:59.651Z,18.03
2019-01-25T03:36:54.466Z,20.23
2019-01-25T03:39:49.411Z,21.10
2019-01-25T03:42:44.315Z,18.87
2019-01-25T03:45:39.551Z,17.70
2019-01-25T03:48:36.526Z,18.40
2019-01-25T03:51:31.304Z,19.00
2019-01-25T03:54:26.665Z,17.10
2019-01-25T03:57:21.835Z,17.63
2019-01-25T04:00:21.685Z,18.27
2019-01-25T04:03:16.076Z,18.93
2019-01-25T04:06:10.723Z,17.80
2019-01-25T04:09:06.607Z,17.80
2019-01-25T04:12:00.731Z,17.80
2019-01-25T04:14:55.098Z,18.33
2019-01-25T04:18:55.190Z,19.23
2019-01-25T04:25:12.276Z,18.17
2019-01-25T04:28:06.694Z,18.83
2019-01-25T04:31:01.262Z,18.07
2019-01-25T04:33:55.607Z,19.27
2019-01-25T04:36:50.915Z,20.30
2019-01-25T04:39:46.127Z,20.33
2019-01-25T04:42:40.343Z,19.50
2019-01-25T04:45:34.795Z,19.93
2019-01-25T04:48:29.387Z,20.70
2019-01-25T04:51:23.802Z,21.30
2019-01-25T04:54:18.181Z,19.07
2019-01-25T04:57:12.699Z,20.20
2019-01-25T05:00:07.445Z,20.77
2019-01-25T05:03:05.588Z,20.47
2019-01-25T05:06:00.627Z,19.13
2019-01-25T05:08:55.308Z,18.70
2019-01-25T05:11:50.322Z,19.13
2019-01-25T05:14:45.123Z,17.83
2019-01-25T05:17:39.997Z,20.47
2019-01-25T05:20:34.602Z,19.33
2019-01-25T05:23:29.374Z,18.33
2019-01-25T05:26:24.236Z,19.03
2019-01-25T05:29:24.210Z,21.80
2019-01-25T05:32:20.608Z,20.40
2019-01-25T05:35:18.341Z,17.97
2019-01-25T05:38:13.299Z,20.63
2019-01-25T05:41:09.498Z,19.37
2019-01-25T05:47:11.214Z,20.10
2019-01-25T05:50:10.747Z,19.87
2019-01-25T05:53:15.060Z,18.83
2019-01-25T05:56:14.638Z,18.37
2019-01-25T05:59:14.596Z,19.73
2019-01-25T06:02:13.222Z,18.63
2019-01-25T06:05:15.967Z,19.00
2019-01-25T06:08:33.489Z,19.30
2019-01-25T06:11:54.086Z,18.60
2019-01-25T06:14:51.461Z,16.27
2019-01-25T06:17:51.839Z,17.50
2019-01-25T06:21:01.525Z,17.83
2019-01-25T06:24:05.085Z,18.13
2019-01-25T06:27:01.473Z,18.57
2019-01-25T06:29:56.453Z,17.73
2019-01-25T06:32:50.970Z,18.30
2019-01-25T06:35:46.043Z,18.43
2019-01-25T06:38:41.711Z,17.50
2019-01-25T06:46:15.111Z,17.40
2019-01-25T06:47:56.063Z,19.17
2019-01-25T06:54:33.191Z,19.00
2019-01-25T06:57:34.599Z,17.60
2019-01-25T07:00:35.660Z,19.37
2019-01-25T07:03:52.886Z,18.87
2019-01-25T07:06:54.956Z,17.90
2019-01-25T07:12:52.969Z,18.77
2019-01-25T07:15:49.085Z,20.10
2019-01-25T07:19:01.713Z,18.90
2019-01-25T07:22:07.047Z,19.77
2019-01-25T07:25:05.902Z,19.47
2019-01-25T07:28:02.033Z,19.03
2019-01-25T07:30:55.897Z,19.43
2019-01-25T07:39:36.384Z,18.33
2019-01-25T07:42:32.272Z,20.20
2019-01-25T07:45:22.910Z,19.87
2019-01-25T07:48:19.770Z,22.33
2019-01-25T07:51:17.142Z,19.27
2019-01-25T07:54:11.741Z,20.70
2019-01-25T07:57:12.188Z,19.83
2019-01-25T08:00:12.477Z,21.80
2019-01-25T08:03:07.912Z,21.73
2019-01-25T08:06:08.938Z,28.07
2019-01-25T08:09:03.289Z,24.63
2019-01-25T08:11:58.828Z,21.70
2019-01-25T08:14:59.909Z,22.93
2019-01-25T08:18:00.279Z,20.57
2019-01-25T08:21:03.334Z,18.43
2019-01-25T08:24:03.690Z,21.30
2019-01-25T08:27:40.451Z,24.07
2019-01-25T08:30:34.788Z,17.70
2019-01-25T08:33:32.283Z,23.50
2019-01-25T08:36:31.331Z,23.07
2019-01-25T08:39:33.648Z,20.13
2019-01-25T08:42:36.119Z,21.80
2019-01-25T08:45:31.295Z,20.20
2019-01-25T08:48:30.624Z,24.60
2019-01-25T08:51:25.624Z,25.13
2019-01-25T08:54:21.142Z,20.10
2019-01-25T08:57:16.793Z,23.53
2019-01-25T09:00:14.055Z,21.90
2019-01-25T09:06:32.836Z,20.93
2019-01-25T09:09:35.401Z,23.33
2019-01-25T09:12:31.229Z,22.87
2019-01-25T09:15:30.427Z,24.30
2019-01-25T09:18:25.191Z,19.97
2019-01-25T09:21:19.386Z,21.20
2019-01-25T09:24:55.665Z,21.93
2019-01-25T09:27:53.574Z,20.23
2019-01-25T09:30:48.865Z,23.90
2019-01-25T09:33:50.996Z,27.67
2019-01-25T09:36:51.917Z,24.27
2019-01-25T09:39:50.434Z,24.83
2019-01-25T09:42:46.721Z,23.87
2019-01-25T09:45:43.132Z,23.27
2019-01-25T09:48:39.262Z,26.30
2019-01-25T09:51:35.752Z,25.23
2019-01-25T09:54:27.426Z,26.40
2019-01-25T09:57:25.832Z,26.40
2019-01-25T10:00:56.729Z,27.33
2019-01-25T10:03:50.145Z,25.70
2019-01-25T10:06:44.931Z,27.23
2019-01-25T10:09:39.304Z,28.20
2019-01-25T10:12:38.818Z,28.10
2019-01-25T10:15:31.734Z,29.73
2019-01-25T10:18:29.153Z,27.47
2019-01-25T10:21:29.161Z,29.20
2019-01-25T10:24:24.802Z,29.10
2019-01-25T10:27:21.535Z,28.83
2019-01-25T10:30:22.255Z,27.77
2019-01-25T10:33:17.030Z,26.43
2019-01-25T10:36:14.165Z,28.30
2019-01-25T10:39:09.023Z,29.40
2019-01-25T10:42:03.835Z,27.97
2019-01-25T10:45:04.278Z,27.30
2019-01-25T10:47:57.152Z,26.63
2019-01-25T10:50:52.154Z,27.27
2019-01-25T10:54:23.623Z,28.47
2019-01-25T10:57:41.092Z,28.30
2019-01-25T11:00:36.540Z,28.33
2019-01-25T11:03:31.630Z,29.40
2019-01-25T11:10:01.382Z,29.13
2019-01-25T11:13:08.997Z,28.70
2019-01-25T11:16:06.468Z,30.20
2019-01-25T11:19:07.422Z,31.10
2019-01-25T11:22:03.230Z,30.87
2019-01-25T11:25:01.330Z,31.53
2019-01-25T11:27:56.234Z,31.37
2019-01-25T11:30:51.847Z,32.67
2019-01-25T11:33:48.145Z,33.57
2019-01-25T11:36:43.543Z,35.33
2019-01-25T11:39:49.371Z,34.27
2019-01-25T11:42:45.090Z,35.07
2019-01-25T11:45:39.604Z,35.53
2019-01-25T11:48:36.018Z,37.17
2019-01-25T11:55:44.647Z,37.87
2019-01-25T12:02:53.568Z,36.37
2019-01-25T12:06:40.311Z,36.47
2019-01-25T12:16:41.489Z,37.90
2019-01-25T12:19:43.630Z,36.80
2019-01-25T12:22:38.310Z,35.63
2019-01-25T12:25:34.624Z,35.23
2019-01-25T12:28:30.773Z,35.73
2019-01-25T12:31:28.561Z,37.97
2019-01-25T12:34:26.250Z,38.43
2019-01-25T12:37:24.166Z,40.43
2019-01-25T12:40:21.313Z,40.00
2019-01-25T12:43:15.918Z,37.57
2019-01-25T12:46:11.811Z,38.40
2019-01-25T12:49:06.370Z,38.00
2019-01-25T12:52:08.357Z,37.10
2019-01-25T12:55:00.516Z,39.33
2019-01-25T12:57:56.090Z,37.73
2019-01-25T13:00:54.654Z,36.23
2019-01-25T13:03:50.790Z,37.17
2019-01-25T13:06:46.149Z,36.20
2019-01-25T13:09:36.332Z,36.30
2019-01-25T13:12:33.269Z,34.90
2019-01-25T13:15:27.446Z,34.67
2019-01-25T13:18:21.679Z,36.20
2019-01-25T13:21:16.031Z,35.67
2019-01-25T13:24:10.209Z,36.50
2019-01-25T13:27:04.339Z,36.53
2019-01-25T13:29:58.937Z,38.37
2019-01-25T13:32:54.623Z,38.13
2019-01-25T13:35:48.812Z,37.10
2019-01-25T13:38:41.445Z,37.20
2019-01-25T13:44:30.108Z,39.03
2019-01-25T13:47:20.971Z,35.30
2019-01-25T13:50:17.570Z,35.97
2019-01-25T13:53:12.676Z,35.57
2019-01-25T13:56:06.978Z,36.57
2019-01-25T13:59:01.723Z,35.13
2019-01-25T14:01:56.241Z,35.57
2019-01-25T14:04:50.635Z,35.03
2019-01-25T14:07:44.843Z,34.80
2019-01-25T14:10:39.765Z,35.07
2019-01-25T14:13:34.623Z,32.53
2019-01-25T14:16:29.347Z,31.00
2019-01-25T14:19:23.823Z,32.23
2019-01-25T14:22:18.192Z,31.90
2019-01-25T14:25:14.646Z,29.67
2019-01-25T14:28:09.301Z,32.10
2019-01-25T14:31:03.853Z,30.13
2019-01-25T14:33:57.925Z,29.70
2019-01-25T14:36:52.652Z,29.93
2019-01-25T14:43:31.258Z,29.67
2019-01-25T14:46:26.003Z,29.57
2019-01-25T14:49:21.799Z,29.83
2019-01-25T14:52:16.630Z,25.77
2019-01-25T14:55:11.727Z,27.60
2019-01-25T14:58:06.783Z,27.30
2019-01-25T15:01:02.805Z,28.70
2019-01-25T15:03:57.548Z,27.67
2019-01-25T15:06:52.492Z,26.90
2019-01-25T15:09:47.132Z,27.50
2019-01-25T15:12:41.907Z,27.63
2019-01-25T15:15:36.570Z,26.57
2019-01-25T15:18:32.273Z,28.47
2019-01-25T15:21:26.967Z,26.80
2019-01-25T15:24:21.721Z,27.70
2019-01-25T15:27:16.043Z,25.70
2019-01-25T15:30:13.406Z,26.53
2019-01-25T15:33:09.568Z,27.13
2019-01-25T15:36:04.234Z,27.57
2019-01-25T15:38:58.449Z,27.53
2019-01-25T15:41:52.916Z,27.07
2019-01-25T15:44:45.358Z,26.90
2019-01-25T15:47:40.077Z,28.33
2019-01-25T15:50:31.028Z,27.23
2019-01-25T15:53:26.035Z,26.47
2019-01-25T15:56:20.968Z,25.17
2019-01-25T15:59:16.141Z,27.07
2019-01-25T16:02:11.145Z,27.53
2019-01-25T16:05:05.930Z,25.53
2019-01-25T16:10:52.670Z,28.30
2019-01-25T16:13:49.785Z,28.20
2019-01-25T16:16:43.513Z,26.90
2019-01-25T16:19:37.943Z,27.87
2019-01-25T16:22:32.130Z,27.63
2019-01-25T16:25:31.571Z,27.03
2019-01-25T16:28:25.795Z,26.83
2019-01-25T16:31:20.014Z,28.50
2019-01-25T16:34:14.560Z,29.57
2019-01-25T16:37:08.978Z,28.77
2019-01-25T16:40:03.312Z,25.97
2019-01-25T16:42:57.834Z,27.67
2019-01-25T16:45:51.938Z,29.80
2019-01-25T16:48:46.149Z,25.33
2019-01-25T16:51:40.704Z,27.43
2019-01-25T16:54:35.240Z,28.77
2019-01-25T16:57:29.595Z,28.20
2019-01-25T17:00:26.873Z,29.00
2019-01-25T17:03:21.975Z,28.03
2019-01-25T17:06:16.531Z,26.60
2019-01-25T17:09:12.237Z,27.37
2019-01-25T17:12:06.667Z,29.53
2019-01-25T17:15:00.814Z,31.10
2019-01-25T17:17:54.786Z,28.47
2019-01-25T17:20:49.019Z,31.93
2019-01-25T17:23:43.262Z,28.60
2019-01-25T17:26:37.720Z,27.47
2019-01-25T17:29:32.099Z,29.03
2019-01-25T17:32:26.391Z,29.47
2019-01-25T17:35:20.516Z,30.53
2019-01-25T17:38:15.054Z,28.40
2019-01-25T17:41:10.160Z,28.87
2019-01-25T17:44:04.576Z,28.43
2019-01-25T17:46:58.809Z,28.00
2019-01-25T17:49:53.124Z,27.23
2019-01-25T17:52:48.713Z,27.37
2019-01-25T17:55:43.083Z,26.37
2019-01-25T17:58:37.380Z,27.80
2019-01-25T18:01:31.822Z,27.33
2019-01-25T18:04:26.328Z,34.57
2019-01-25T18:07:20.833Z,35.60
2019-01-25T18:10:17.631Z,40.37
2019-01-25T18:13:12.483Z,31.33
2019-01-25T18:16:07.021Z,39.33
2019-01-25T18:19:01.765Z,33.40
2019-01-25T18:21:56.824Z,31.13
2019-01-25T18:24:51.257Z,33.60
2019-01-25T18:27:49.079Z,32.23
2019-01-25T18:30:53.510Z,30.50
2019-01-25T18:33:48.002Z,31.60
2019-01-25T18:36:42.554Z,31.33
2019-01-25T18:39:37.286Z,29.47
2019-01-25T18:42:32.034Z,32.73
2019-01-25T18:45:27.145Z,31.87
2019-01-25T18:48:21.605Z,29.93
2019-01-25T18:51:17.988Z,32.53
2019-01-25T18:54:12.236Z,32.10
2019-01-25T18:57:07.180Z,31.33
2019-01-25T19:00:02.401Z,28.33
2019-01-25T19:02:57.213Z,31.10
2019-01-25T19:05:51.625Z,31.63
2019-01-25T19:08:46.256Z,29.67
2019-01-25T19:11:40.575Z,31.33
2019-01-25T19:14:35.814Z,31.10
2019-01-25T19:17:30.770Z,30.73
2019-01-25T19:20:25.378Z,29.57
2019-01-25T19:23:19.855Z,30.60
2019-01-25T19:26:14.119Z,28.27
2019-01-25T19:29:08.861Z,31.57
2019-01-25T19:32:03.727Z,28.60
2019-01-25T19:34:58.556Z,29.63
2019-01-25T19:37:52.861Z,31.07
2019-01-25T19:40:47.324Z,28.50
2019-01-25T19:43:41.530Z,32.20
2019-01-25T19:46:36.300Z,28.03
2019-01-25T19:49:30.753Z,28.97
2019-01-25T19:52:25.000Z,30.50
2019-01-25T19:55:30.938Z,31.07
2019-01-25T19:58:27.075Z,29.67
2019-01-25T20:01:21.794Z,29.33
2019-01-25T20:04:16.628Z,29.67
2019-01-25T20:07:11.225Z,30.30
2019-01-25T20:10:07.659Z,28.10
2019-01-25T20:13:03.686Z,30.67
2019-01-25T20:15:59.630Z,28.30
2019-01-25T20:18:55.365Z,29.70
2019-01-25T20:21:49.829Z,31.80
2019-01-25T20:24:43.954Z,27.93
2019-01-25T20:27:38.316Z,31.03
2019-01-25T20:30:34.435Z,31.93
2019-01-25T20:33:29.075Z,29.73
2019-01-25T20:36:23.559Z,30.17
2019-01-25T20:39:18.095Z,27.17
2019-01-25T20:42:12.873Z,28.33
2019-01-25T20:45:07.691Z,30.60
2019-01-25T20:48:01.884Z,27.70
2019-01-25T20:50:56.084Z,30.47
2019-01-25T20:53:50.459Z,30.30
2019-01-25T20:56:45.133Z,28.80
2019-01-25T20:59:39.452Z,29.93
2019-01-25T21:02:33.919Z,27.07
2019-01-25T21:05:28.466Z,31.10
2019-01-25T21:08:22.770Z,30.17
2019-01-25T21:11:17.394Z,31.77
2019-01-25T21:14:11.799Z,31.17
2019-01-25T21:17:06.521Z,30.13
2019-01-25T21:20:01.009Z,26.87
2019-01-25T21:22:56.393Z,29.40
2019-01-25T21:25:50.828Z,29.43
2019-01-25T21:28:45.512Z,32.40
2019-01-25T21:31:39.821Z,29.50
2019-01-25T21:34:35.569Z,31.23
2019-01-25T21:37:30.030Z,30.67
2019-01-25T21:40:26.640Z,30.97
2019-01-25T21:43:21.264Z,31.83
2019-01-25T21:46:15.457Z,30.97
2019-01-25T21:49:09.929Z,33.30
2019-01-25T21:52:04.605Z,30.43
2019-01-25T21:54:59.050Z,32.53
2019-01-25T21:57:53.768Z,34.10
2019-01-25T22:00:48.140Z,30.30
2019-01-25T22:03:42.566Z,33.27
2019-01-25T22:06:36.830Z,28.03
2019-01-25T22:09:31.025Z,34.93
2019-01-25T22:12:25.723Z,34.47
2019-01-25T22:15:20.892Z,32.07
2019-01-25T22:18:15.214Z,35.07
2019-01-25T22:21:09.804Z,33.40
2019-01-25T22:24:04.110Z,32.37
2019-01-25T22:26:58.802Z,35.50
2019-01-25T22:29:53.089Z,45.43
2019-01-25T22:32:47.783Z,42.17
2019-01-25T22:35:42.257Z,35.90
2019-01-25T22:38:36.683Z,39.07
2019-01-25T22:41:30.923Z,41.43
2019-01-25T22:44:25.233Z,37.67
2019-01-25T22:47:20.479Z,37.67
2019-01-25T22:50:21.338Z,39.17
2019-01-25T22:53:15.547Z,39.10
2019-01-25T22:56:09.833Z,37.30
2019-01-25T22:59:04.483Z,34.67
2019-01-25T23:01:59.041Z,34.03
2019-01-25T23:05:34.071Z,36.63
2019-01-25T23:08:28.651Z,34.20
2019-01-25T23:11:24.035Z,39.73
2019-01-25T23:14:18.383Z,39.50
2019-01-25T23:17:12.735Z,37.30
2019-01-25T23:20:07.535Z,38.33
2019-01-25T23:23:02.178Z,37.70
2019-01-25T23:25:56.514Z,40.93
2019-01-25T23:28:51.016Z,37.90
2019-01-25T23:31:44.960Z,35.60
2019-01-25T23:34:39.399Z,34.13
2019-01-25T23:37:33.491Z,37.47
2019-01-25T23:40:27.957Z,39.63
2019-01-25T23:43:22.341Z,39.87
2019-01-25T23:46:16.569Z,36.27
2019-01-25T23:49:12.066Z,36.03
2019-01-25T23:52:06.300Z,37.00
2019-01-25T23:55:00.795Z,33.87
2019-01-25T23:57:55.062Z,33.40
